createdAt,value
2023-04-13T00:00:39.668Z,98897.59
2023-04-13T00:05:44.083Z,98899.91
2023-04-13T00:10:48.750Z,98892.78
2023-04-13T00:15:51.524Z,98908.66
2023-04-13T00:20:55.661Z,98909.81
2023-04-13T00:25:58.655Z,98911.78
2023-04-13T00:31:01.884Z,98941.94
2023-04-13T00:36:08.279Z,98942.63
2023-04-13T00:41:11.028Z,98974.81
2023-04-13T00:46:16.159Z,98981.94
2023-04-13T00:51:21.499Z,98978.94
2023-04-13T00:56:27.148Z,98990.28
2023-04-13T01:01:30.541Z,98979.72
2023-04-13T01:06:34.791Z,98979.91
2023-04-13T01:11:40.433Z,98970.78
2023-04-13T01:16:45.714Z,98984.31
2023-04-13T01:21:54.343Z,98972.19
2023-04-13T01:26:59.296Z,98983.91
2023-04-13T01:32:03.410Z,98987.75
2023-04-13T01:37:07.694Z,98978.28
2023-04-13T01:42:11.194Z,98997.34
2023-04-13T01:47:20.387Z,98997.50
2023-04-13T01:52:37.756Z,98995.25
2023-04-13T01:57:45.741Z,98999.78
2023-04-13T02:02:50.208Z,98995.56
2023-04-13T02:07:53.708Z,99002.06
2023-04-13T02:12:56.582Z,99006.16
2023-04-13T02:18:01.848Z,98996.28
2023-04-13T02:23:04.729Z,99007.16
2023-04-13T02:28:09.033Z,98997.44
2023-04-13T02:33:13.989Z,98994.06
2023-04-13T02:38:17.011Z,98993.34
2023-04-13T02:43:26.320Z,98995.19
2023-04-13T02:48:30.651Z,98993.66
2023-04-13T02:53:33.495Z,98982.25
2023-04-13T02:58:41.758Z,98992.28
2023-04-13T03:03:52.365Z,98995.22
2023-04-13T03:08:59.152Z,98993.53
2023-04-13T03:14:03.168Z,98984.66
2023-04-13T03:19:08.555Z,98990.16
2023-04-13T03:24:12.632Z,99005.94
2023-04-13T03:29:16.094Z,99002.03
2023-04-13T03:34:22.865Z,99019.09
2023-04-13T03:39:27.155Z,99029.09
2023-04-13T03:44:30.754Z,99041.53
2023-04-13T03:49:36.017Z,99032.75
2023-04-13T03:54:40.115Z,99018.53
2023-04-13T03:59:43.081Z,99002.59
2023-04-13T04:04:50.961Z,98998.22
2023-04-13T04:09:54.019Z,98995.69
2023-04-13T04:14:59.873Z,99002.91
2023-04-13T04:20:10.150Z,98996.84
2023-04-13T04:25:12.970Z,99021.91
2023-04-13T04:30:18.892Z,99029.25
2023-04-13T04:35:26.049Z,99039.97
2023-04-13T04:40:30.119Z,99053.66
2023-04-13T04:45:36.126Z,99048.44
2023-04-13T04:50:44.858Z,99071.88
2023-04-13T04:55:51.355Z,99071.03
2023-04-13T05:01:08.762Z,99075.66
2023-04-13T05:06:13.233Z,99086.38
2023-04-13T05:11:16.270Z,99090.88
2023-04-13T05:16:19.416Z,99101.59
2023-04-13T05:21:23.941Z,99102.59
2023-04-13T05:26:33.086Z,99106.25
2023-04-13T05:31:38.106Z,99101.03
2023-04-13T05:36:42.471Z,99107.25
2023-04-13T05:41:48.810Z,99110.06
2023-04-13T05:46:52.637Z,99102.88
2023-04-13T05:51:56.972Z,99109.91
2023-04-13T05:57:10.485Z,99120.63
2023-04-13T06:02:17.598Z,99139.53
2023-04-13T06:07:22.286Z,99138.69
2023-04-13T06:12:25.797Z,99151.06
2023-04-13T06:17:28.863Z,99138.53
2023-04-13T06:22:33.322Z,99148.13
2023-04-13T06:27:36.243Z,99147.25
2023-04-13T06:32:39.605Z,99144.44
2023-04-13T06:37:44.721Z,99136.41
2023-04-13T06:42:51.511Z,99141.63
2023-04-13T06:48:29.831Z,99142.34
2023-04-13T06:53:36.789Z,99129.81
2023-04-13T06:58:40.277Z,99151.59
2023-04-13T07:03:43.732Z,99143.53
2023-04-13T07:08:48.139Z,99143.66
2023-04-13T07:13:51.162Z,99148.28
2023-04-13T07:18:54.237Z,99155.28
2023-04-13T07:23:58.938Z,99151.69
2023-04-13T07:29:01.785Z,99165.63
2023-04-13T07:34:09.561Z,99171.69
2023-04-13T07:39:19.984Z,99173.22
2023-04-13T07:44:24.880Z,99196.34
2023-04-13T07:49:28.652Z,99194.84
2023-04-13T07:54:34.964Z,99201.66
2023-04-13T07:59:38.291Z,99205.78
2023-04-13T08:04:41.484Z,99214.69
2023-04-13T08:09:48.624Z,99204.13
2023-04-13T08:14:51.618Z,99213.09
2023-04-13T08:19:54.485Z,99224.56
2023-04-13T08:24:59.032Z,99218.06
2023-04-13T08:30:07.482Z,99204.38
2023-04-13T08:35:20.450Z,99218.34
2023-04-13T08:40:24.893Z,99222.44
2023-04-13T08:45:30.791Z,99217.75
2023-04-13T08:50:33.891Z,99230.75
2023-04-13T08:55:41.948Z,99237.94
2023-04-13T09:00:47.333Z,99245.16
2023-04-13T09:05:50.414Z,99244.72
2023-04-13T09:10:55.591Z,99239.63
2023-04-13T09:15:58.531Z,99235.81
2023-04-13T09:21:24.211Z,99251.34
2023-04-13T09:26:28.551Z,99248.66
2023-04-13T09:31:34.570Z,99237.94
2023-04-13T09:36:46.275Z,99235.00
2023-04-13T09:41:57.966Z,99229.63
2023-04-13T09:47:01.178Z,99243.44
2023-04-13T09:52:06.645Z,99237.13
2023-04-13T09:57:10.989Z,99249.78
2023-04-13T10:02:13.883Z,99253.19
2023-04-13T10:07:16.708Z,99248.69
2023-04-13T10:12:20.817Z,99256.44
2023-04-13T10:17:28.883Z,99263.19
2023-04-13T10:22:31.821Z,99273.06
2023-04-13T10:27:36.474Z,99271.97
2023-04-13T10:32:39.340Z,99277.88
2023-04-13T10:37:44.474Z,99285.47
2023-04-13T10:42:52.841Z,99285.47
2023-04-13T10:47:58.376Z,99282.94
2023-04-13T10:53:03.050Z,99291.81
2023-04-13T10:58:16.907Z,99290.13
2023-04-13T11:03:20.051Z,99289.28
2023-04-13T11:08:22.870Z,99295.50
2023-04-13T11:13:28.956Z,99290.28
2023-04-13T11:18:31.895Z,99285.91
2023-04-13T11:23:35.961Z,99279.44
2023-04-13T11:28:41.063Z,99288.91
2023-04-13T11:33:44.583Z,99283.66
2023-04-13T11:38:48.267Z,99296.75
2023-04-13T11:43:52.404Z,99297.44
2023-04-13T11:48:55.684Z,99294.50
2023-04-13T11:53:58.471Z,99283.59
2023-04-13T11:59:02.769Z,99288.94
2023-04-13T12:04:15.101Z,99274.38
2023-04-13T12:09:21.063Z,99299.56
2023-04-13T12:19:32.996Z,99286.63
2023-04-13T12:24:38.300Z,99297.03
2023-04-13T12:29:42.781Z,99284.06
2023-04-13T12:34:45.658Z,99301.59
2023-04-13T12:39:48.517Z,99297.22
2023-04-13T12:44:52.713Z,99292.97
2023-04-13T12:49:56.304Z,99292.78
2023-04-13T12:54:59.854Z,99301.66
2023-04-13T13:00:08.886Z,99305.47
2023-04-13T13:05:11.940Z,99304.31
2023-04-13T13:10:28.935Z,99318.47
2023-04-13T13:15:33.967Z,99318.44
2023-04-13T13:20:41.181Z,99311.59
2023-04-13T13:25:57.107Z,99311.50
2023-04-13T13:31:09.216Z,99310.91
2023-04-13T13:36:13.756Z,99318.75
2023-04-13T13:41:17.131Z,99309.69
2023-04-13T13:46:21.449Z,99314.22
2023-04-13T13:51:24.864Z,99308.56
2023-04-13T13:56:28.017Z,99306.72
2023-04-13T14:01:32.788Z,99301.75
2023-04-13T14:06:35.692Z,99304.03
2023-04-13T14:11:38.472Z,99312.22
2023-04-13T14:16:42.577Z,99320.69
2023-04-13T14:21:45.502Z,99328.63
2023-04-13T14:26:48.514Z,99324.41
2023-04-13T14:31:53.644Z,99310.63
2023-04-13T14:36:56.499Z,99321.75
2023-04-13T14:41:59.289Z,99321.94
2023-04-13T14:47:05.938Z,99322.59
2023-04-13T14:52:11.402Z,99325.69
2023-04-13T14:57:14.510Z,99331.47
2023-04-13T15:02:19.134Z,99335.84
2023-04-13T15:07:29.937Z,99354.59
2023-04-13T15:12:32.973Z,99357.66
2023-04-13T15:17:37.231Z,99360.75
2023-04-13T15:22:41.287Z,99352.38
2023-04-13T15:27:44.111Z,99360.50
2023-04-13T15:32:48.553Z,99356.13
2023-04-13T15:37:52.085Z,99359.13
2023-04-13T15:42:54.831Z,99366.50
2023-04-13T15:47:59.220Z,99368.91
2023-04-13T15:53:02.077Z,99364.53
2023-04-13T15:58:05.033Z,99369.72
2023-04-13T16:03:09.686Z,99376.59
2023-04-13T16:08:12.597Z,99381.88
2023-04-13T16:13:19.672Z,99379.56
2023-04-13T16:18:26.129Z,99381.41
2023-04-13T16:23:29.150Z,99369.97
2023-04-13T16:28:32.046Z,99379.75
2023-04-13T16:33:36.232Z,99387.88
2023-04-13T16:38:39.920Z,99381.19
2023-04-13T16:43:42.742Z,99384.88
2023-04-13T16:48:47.543Z,99372.06
2023-04-13T16:53:50.397Z,99381.03
2023-04-13T16:58:53.355Z,99385.72
2023-04-13T17:03:57.647Z,99381.03
2023-04-13T17:09:00.569Z,99385.63
2023-04-13T17:14:03.495Z,99371.56
2023-04-13T17:19:07.824Z,99356.91
2023-04-13T17:24:10.858Z,99357.06
2023-04-13T17:29:13.743Z,99359.97
2023-04-13T17:34:17.912Z,99375.72
2023-04-13T17:39:20.856Z,99384.94
2023-04-13T17:44:23.629Z,99411.81
2023-04-13T17:49:28.165Z,99430.75
2023-04-13T17:54:30.959Z,99438.09
2023-04-13T17:59:33.855Z,99461.16
2023-04-13T18:04:38.097Z,99463.56
2023-04-13T18:09:40.941Z,99484.03
2023-04-13T18:14:43.672Z,99491.81
2023-04-13T18:19:48.846Z,99503.25
2023-04-13T18:24:51.685Z,99522.75
2023-04-13T18:29:55.378Z,99533.91
2023-04-13T18:34:59.569Z,99535.47
2023-04-13T18:40:04.371Z,99531.63
2023-04-13T18:45:08.180Z,99543.97
2023-04-13T18:50:13.295Z,99549.06
2023-04-13T18:55:16.536Z,99544.53
2023-04-13T19:00:19.958Z,99550.63
2023-04-13T19:05:24.460Z,99548.06
2023-04-13T19:10:27.995Z,99548.06
2023-04-13T19:15:31.841Z,99551.47
2023-04-13T19:20:35.936Z,99553.31
2023-04-13T19:25:38.729Z,99550.63
2023-04-13T19:30:41.704Z,99546.81
2023-04-13T19:35:46.148Z,99541.31
2023-04-13T19:40:48.975Z,99544.84
2023-04-13T19:45:52.010Z,99543.84
2023-04-13T19:50:56.398Z,99547.53
2023-04-13T19:55:59.127Z,99549.06
2023-04-13T20:01:02.165Z,99545.38
2023-04-13T20:06:06.495Z,99546.22
2023-04-13T20:11:09.334Z,99546.81
2023-04-13T20:16:12.303Z,99547.06
2023-04-13T20:21:18.257Z,99544.81
2023-04-13T20:26:22.471Z,99543.84
2023-04-13T20:31:25.439Z,99550.75
2023-04-13T20:36:30.244Z,99545.22
2023-04-13T20:41:34.812Z,99552.44
2023-04-13T20:46:41.931Z,99545.81
2023-04-13T20:51:46.947Z,99543.28
2023-04-13T20:56:49.863Z,99538.59
2023-04-13T21:01:52.789Z,99531.38
2023-04-13T21:06:57.100Z,99525.16
2023-04-13T21:11:59.842Z,99520.63
2023-04-13T21:17:02.584Z,99516.13
2023-04-13T21:22:06.818Z,99525.72
2023-04-13T21:27:09.540Z,99507.34
2023-04-13T21:32:13.435Z,99513.28
2023-04-13T21:37:17.571Z,99520.19
2023-04-13T21:42:22.529Z,99519.19
2023-04-13T21:47:25.634Z,99523.03
2023-04-13T21:52:30.049Z,99520.06
2023-04-13T21:57:33.061Z,99531.94
2023-04-13T22:02:36.085Z,99529.09
2023-04-13T22:07:43.279Z,99531.78
2023-04-13T22:12:47.017Z,99523.59
2023-04-13T22:17:49.872Z,99516.41
2023-04-13T22:22:54.011Z,99490.38
2023-04-13T22:27:56.996Z,99477.94
2023-04-13T22:32:59.859Z,99469.16
2023-04-13T22:38:04.608Z,99474.81
2023-04-13T22:43:07.424Z,99463.38
2023-04-13T22:48:10.409Z,99487.81
2023-04-13T22:53:14.508Z,99510.59
2023-04-13T22:58:17.290Z,99516.28
2023-04-13T23:03:20.209Z,99528.13
2023-04-13T23:08:24.472Z,99541.16
2023-04-13T23:13:27.265Z,99546.81
2023-04-13T23:18:30.079Z,99551.75
2023-04-13T23:23:34.249Z,99563.75
2023-04-13T23:28:37.038Z,99562.31
2023-04-13T23:33:39.816Z,99559.22
2023-04-13T23:38:43.929Z,99552.41
2023-04-13T23:43:47.061Z,99554.25
2023-04-13T23:48:49.903Z,99561.75
2023-04-13T23:53:54.044Z,99557.50
2023-04-13T23:58:56.802Z,99553.25
